, LA

(GMT )
East Cameron 278

Weather History for KEHC - January, 2014

Change the Weather History Date:

Tuesday, January 7, 2014

  Actual Average Record
Temperature  
Mean Temperature 42 °F -  
Max Temperature 46 °F - - ()
Min Temperature 37 °F - - ()
Degree Days  
Heating Degree Days 24    
Moisture  
Dew Point 26 °F    
Average Humidity 56    
Maximum Humidity 62    
Minimum Humidity 48    
Precipitation  
Precipitation 0.00 in - - ()
Sea Level Pressure  
Sea Level Pressure 30.54 in    
Wind  
Wind Speed 24 mph (ENE)    
Max Wind Speed 34 mph    
Max Gust Speed 40 mph    
Visibility 10 miles    
Events      
Averages and records for this station are not official NWS values.
T = Trace of Precipitation, MM = Missing Value Source: NWS Daily Summary

Daily Weather History Graph

Daily Weather History Graph

Search for Another Location

Airport or City:

Trip Planner

Search our weather history database for the weather conditions in past years. The results will help you decide how hot, cold, wet, or windy it might be!

Date:

Astronomy

Jan. 07, 2014 Rise Set
Actual Time 7:05 AM CST 5:30 PM CST
Civil Twilight 6:39 AM CST 5:56 PM CST
Nautical Twilight 6:10 AM CST 6:25 PM CST
Astronomical Twilight 5:41 AM CST 6:54 PM CST
Moon 11:30 AM CST (1/7) No Moon Set
Length of Visible Light 11h 17m
Length of Day
10h 25m
Waxing Crescent, 46% of the Moon is Illuminated
Jan 7
Waxing Crescent
Jan 7
First Quarter
Jan 15
Full
Jan 23
Last Quarter
Jan 30
New

Hourly Weather History & Observations

Time (CST) Temp. Windchill Dew Point Humidity Pressure Visibility Wind Dir Wind Speed Gust Speed Precip Events Conditions
12:15 AM 39.2 °F 27.4 °F 24.8 °F 56% 30.57 in 10.0 mi NNE 29.9 mph - N/A   Unknown
12:35 AM 39.2 °F 26.8 °F 23.0 °F 52% 30.56 in 10.0 mi NNE 33.4 mph - N/A   Clear
12:55 AM 39.2 °F 26.6 °F 24.8 °F 56% 30.55 in 10.0 mi NNE 34.5 mph - N/A   Unknown
1:15 AM 37.4 °F 24.2 °F 23.0 °F 56% 30.55 in 10.0 mi NNE 34.5 mph - N/A   Clear
1:35 AM 39.2 °F 26.6 °F 24.8 °F 56% 30.54 in 10.0 mi NNE 34.5 mph 40.3 mph N/A   Clear
1:55 AM 37.4 °F 24.6 °F 23.0 °F 56% 30.55 in 10.0 mi NNE 32.2 mph 39.1 mph N/A   Unknown
3:15 AM 37.4 °F 25.2 °F 24.8 °F 60% 30.55 in 10.0 mi NNE 28.8 mph 36.8 mph N/A   Clear
3:35 AM 37.4 °F 25.2 °F 24.8 °F 60% 30.55 in 10.0 mi NNE 28.8 mph 36.8 mph N/A   Clear
3:55 AM 37.4 °F 25.4 °F 24.8 °F 60% 30.56 in 10.0 mi NNE 27.6 mph 33.4 mph N/A   Unknown
4:15 AM 37.4 °F 25.9 °F 24.8 °F 60% 30.56 in 10.0 mi NE 25.3 mph 33.4 mph N/A   Unknown
4:25 AM 37.4 °F 25.6 °F 23.0 °F 56% 30.56 in 10.0 mi NE 26.5 mph 33.4 mph N/A   Unknown
4:55 AM 37.4 °F 26.4 °F 24.8 °F 60% 30.56 in 10.0 mi NNE 23.0 mph 32.2 mph N/A   Unknown
5:15 AM 37.4 °F 25.9 °F 21.2 °F 52% 30.57 in 10.0 mi NE 25.3 mph - N/A   Unknown
5:35 AM 37.4 °F 25.6 °F 19.4 °F 48% 30.57 in 10.0 mi NNE 26.5 mph - N/A   Unknown
5:55 AM 37.4 °F 25.6 °F 21.2 °F 52% 30.58 in 10.0 mi NE 26.5 mph - N/A   Unknown
6:15 AM 37.4 °F 26.6 °F 21.2 °F 52% 30.59 in 10.0 mi NE 21.9 mph - N/A   Unknown
6:35 AM 37.4 °F 26.1 °F 21.2 °F 52% 30.59 in 10.0 mi NE 24.2 mph 29.9 mph N/A   Clear
6:55 AM 37.4 °F 26.6 °F 21.2 °F 52% 30.60 in 10.0 mi NE 21.9 mph 31.1 mph N/A   Unknown
7:15 AM 37.4 °F 27.5 °F 21.2 °F 52% 30.61 in 10.0 mi NE 18.4 mph 26.5 mph N/A   Clear
7:35 AM 37.4 °F 26.6 °F 19.4 °F 48% 30.62 in 10.0 mi NE 21.9 mph - N/A   Clear
7:55 AM 37.4 °F 27.5 °F 21.2 °F 52% 30.61 in 10.0 mi NE 18.4 mph 26.5 mph N/A   Clear
8:15 AM 39.2 °F 29.6 °F 21.2 °F 49% 30.62 in 10.0 mi NE 19.6 mph 27.6 mph N/A   Clear
8:35 AM 39.2 °F 29.3 °F 23.0 °F 52% 30.63 in 10.0 mi NE 20.7 mph - N/A   Clear
8:55 AM 39.2 °F 29.0 °F 21.2 °F 49% 30.63 in 10.0 mi ENE 21.9 mph - N/A   Unknown
9:15 AM 39.2 °F 30.8 °F 23.0 °F 52% 30.64 in 10.0 mi NE 15.0 mph 25.3 mph N/A   Unknown
9:35 AM 39.2 °F 29.8 °F 23.0 °F 52% 30.64 in 10.0 mi ENE 18.4 mph 25.3 mph N/A   Clear
9:55 AM 39.2 °F 30.2 °F 23.0 °F 52% 30.64 in 10.0 mi ENE 17.3 mph 24.2 mph N/A   Unknown
10:15 AM 41.0 °F 31.9 °F 24.8 °F 53% 30.63 in 10.0 mi ENE 19.6 mph 31.1 mph N/A   Unknown
10:35 AM 39.2 °F 31.2 °F 23.0 °F 52% 30.62 in 10.0 mi East 13.8 mph 25.3 mph N/A   Unknown
10:55 AM 41.0 °F 32.5 °F 24.8 °F 53% 30.62 in 10.0 mi ENE 17.3 mph - N/A   Unknown
11:15 AM 41.0 °F 32.5 °F 24.8 °F 53% 30.61 in 10.0 mi ENE 17.3 mph 24.2 mph N/A   Unknown
11:35 AM 41.0 °F 32.5 °F 24.8 °F 53% 30.59 in 10.0 mi ENE 17.3 mph - N/A   Unknown
11:55 AM 41.0 °F 32.5 °F 24.8 °F 53% 30.58 in 10.0 mi East 17.3 mph 24.2 mph N/A   Unknown
12:15 PM 41.0 °F 33.1 °F 24.8 °F 53% 30.57 in 10.0 mi East 15.0 mph 21.9 mph N/A   Unknown
12:35 PM 41.0 °F 32.8 °F 26.6 °F 57% 30.55 in 10.0 mi East 16.1 mph 23.0 mph N/A   Unknown
12:55 PM 41.0 °F 32.5 °F 26.6 °F 57% 30.54 in 10.0 mi East 17.3 mph - N/A   Unknown
1:15 PM 41.0 °F 32.5 °F 26.6 °F 57% 30.53 in 10.0 mi ENE 17.3 mph - N/A   Unknown
1:35 PM 41.0 °F 32.2 °F 26.6 °F 57% 30.52 in 10.0 mi ENE 18.4 mph - N/A   Unknown
1:55 PM 42.8 °F 34.8 °F 26.6 °F 53% 30.53 in 10.0 mi ENE 17.3 mph 25.3 mph N/A   Clear
2:15 PM 41.0 °F 32.2 °F 24.8 °F 53% 30.52 in 10.0 mi ENE 18.4 mph - N/A   Clear
2:35 PM 42.8 °F 34.3 °F 26.6 °F 53% 30.51 in 10.0 mi East 19.6 mph 25.3 mph N/A   Clear
2:55 PM 41.0 °F 31.4 °F 26.6 °F 57% 30.51 in 10.0 mi ENE 21.9 mph - N/A   Clear
3:15 PM 42.8 °F 33.8 °F 28.4 °F 57% 30.51 in 10.0 mi ENE 21.9 mph - N/A   Clear
3:35 PM 42.8 °F 33.8 °F 28.4 °F 57% 30.51 in 10.0 mi ENE 21.9 mph - N/A   Clear
3:55 PM 42.8 °F 34.8 °F 28.4 °F 57% 30.51 in 10.0 mi ENE 17.3 mph - N/A   Clear
4:15 PM 42.8 °F 33.5 °F 30.2 °F 61% 30.50 in 10.0 mi East 23.0 mph 28.8 mph N/A   Clear
4:35 PM 42.8 °F 34.0 °F 28.4 °F 57% 30.50 in 10.0 mi ENE 20.7 mph - N/A   Clear
4:55 PM 42.8 °F 34.3 °F 30.2 °F 61% 30.50 in 10.0 mi East 19.6 mph 26.5 mph N/A   Clear
5:15 PM 42.8 °F 34.3 °F 30.2 °F 61% 30.50 in 10.0 mi East 19.6 mph - N/A   Clear
5:35 PM 42.8 °F 34.5 °F 30.2 °F 61% 30.50 in 10.0 mi East 18.4 mph - N/A   Partly Cloudy
5:55 PM 42.8 °F 34.8 °F 30.2 °F 61% 30.50 in 10.0 mi East 17.3 mph - N/A   Unknown
6:15 PM 42.8 °F 35.8 °F 28.4 °F 57% 30.50 in 10.0 mi East 13.8 mph 21.9 mph N/A   Unknown
6:35 PM 42.8 °F 34.8 °F 28.4 °F 57% 30.50 in 10.0 mi East 17.3 mph - N/A   Unknown
6:55 PM 42.8 °F 34.5 °F 30.2 °F 61% 30.50 in 10.0 mi East 18.4 mph - N/A   Unknown
7:15 PM 42.8 °F 34.8 °F 28.4 °F 57% 30.50 in 10.0 mi East 17.3 mph 25.3 mph N/A   Unknown
7:35 PM 42.8 °F 35.1 °F 28.4 °F 57% 30.51 in 10.0 mi East 16.1 mph - N/A   Unknown
7:55 PM 42.8 °F 34.5 °F 30.2 °F 61% 30.50 in 10.0 mi East 18.4 mph - N/A   Unknown
8:15 PM 42.8 °F 35.1 °F 30.2 °F 61% 30.50 in 10.0 mi East 16.1 mph 23.0 mph N/A   Unknown
8:35 PM 42.8 °F 34.5 °F 30.2 °F 61% 30.49 in 10.0 mi East 18.4 mph 24.2 mph N/A   Unknown
8:55 PM 44.6 °F 37.4 °F 30.2 °F 57% 30.49 in 10.0 mi East 16.1 mph - N/A   Unknown
9:15 PM 44.6 °F 37.2 °F 30.2 °F 57% 30.48 in 10.0 mi East 17.3 mph - N/A   Scattered Clouds
9:35 PM 44.6 °F 36.6 °F 30.2 °F 57% 30.48 in 10.0 mi ESE 19.6 mph - N/A   Unknown
9:55 PM 44.6 °F 37.4 °F 32.0 °F 61% 30.48 in 10.0 mi East 16.1 mph 25.3 mph N/A   Overcast
10:15 PM 44.6 °F 37.2 °F 28.4 °F 53% 30.47 in 10.0 mi ESE 17.3 mph 24.2 mph N/A   Unknown
10:35 PM 46.4 °F 39.2 °F 30.2 °F 53% 30.46 in 10.0 mi East 18.4 mph - N/A   Overcast
10:55 PM 46.4 °F 39.5 °F 32.0 °F 57% 30.45 in 10.0 mi ESE 17.3 mph - N/A   Unknown
11:15 PM 46.4 °F 39.2 °F 30.2 °F 53% 30.45 in 10.0 mi East 18.4 mph - N/A   Unknown
11:35 PM 46.4 °F 39.8 °F 32.0 °F 57% 30.44 in 10.0 mi ESE 16.1 mph 21.9 mph N/A   Unknown
11:55 PM 46.4 °F 39.2 °F 33.8 °F 62% 30.43 in 10.0 mi East 18.4 mph - N/A   Clear